createdAt,value
2017-09-23T00:00:07.036Z,12.80
2017-09-23T00:02:34.624Z,14.37
2017-09-23T00:05:02.162Z,15.30
2017-09-23T00:07:29.729Z,13.50
2017-09-23T00:09:57.355Z,14.23
2017-09-23T00:12:24.912Z,13.47
2017-09-23T00:14:52.480Z,14.23
2017-09-23T00:17:20.057Z,13.40
2017-09-23T00:19:47.620Z,12.70
2017-09-23T00:22:15.229Z,13.27
2017-09-23T00:24:42.792Z,13.63
2017-09-23T00:27:10.381Z,13.53
2017-09-23T00:29:37.949Z,12.27
2017-09-23T00:32:05.514Z,12.20
2017-09-23T00:34:33.105Z,11.70
2017-09-23T00:37:01.469Z,11.00
2017-09-23T00:39:29.799Z,12.80
2017-09-23T00:41:57.352Z,12.97
2017-09-23T00:44:24.928Z,12.73
2017-09-23T00:46:52.484Z,12.83
2017-09-23T00:49:20.064Z,12.00
2017-09-23T00:51:47.625Z,12.07
2017-09-23T00:54:15.201Z,11.97
2017-09-23T00:56:43.530Z,11.03
2017-09-23T00:59:11.079Z,11.90
2017-09-23T01:01:38.632Z,10.37
2017-09-23T01:04:06.199Z,11.40
2017-09-23T01:06:33.780Z,10.57
2017-09-23T01:09:01.333Z,11.97
2017-09-23T01:11:28.886Z,12.07
2017-09-23T01:13:56.453Z,11.27
2017-09-23T01:16:23.988Z,12.97
2017-09-23T01:18:51.535Z,13.20
2017-09-23T01:21:19.103Z,13.80
2017-09-23T01:23:46.653Z,12.93
2017-09-23T01:26:14.232Z,12.23
2017-09-23T01:28:41.783Z,13.70
2017-09-23T01:31:09.327Z,13.67
2017-09-23T01:33:36.901Z,13.07
2017-09-23T01:36:04.452Z,13.87
2017-09-23T01:38:32.032Z,12.90
2017-09-23T01:40:59.569Z,13.80
2017-09-23T01:43:27.144Z,15.33
2017-09-23T01:45:54.701Z,14.10
2017-09-23T01:48:22.308Z,14.83
2017-09-23T01:50:50.621Z,15.23
2017-09-23T01:53:18.173Z,15.40
2017-09-23T01:55:45.741Z,14.30
2017-09-23T01:58:13.296Z,14.93
2017-09-23T02:00:40.865Z,15.13
2017-09-23T02:03:08.401Z,16.23
2017-09-23T02:05:35.968Z,14.40
2017-09-23T02:08:03.535Z,14.10
2017-09-23T02:10:31.184Z,15.40
2017-09-23T02:12:58.758Z,16.33
2017-09-23T02:15:26.309Z,16.70
2017-09-23T02:17:54.263Z,15.80
2017-09-23T02:20:21.829Z,13.60
2017-09-23T02:22:49.477Z,14.13
2017-09-23T02:25:17.053Z,14.70
2017-09-23T02:27:44.620Z,15.43
2017-09-23T02:30:12.198Z,15.17
2017-09-23T02:32:39.762Z,15.40
2017-09-23T02:35:07.333Z,15.70
2017-09-23T02:37:34.884Z,15.63
2017-09-23T02:40:02.446Z,14.20
2017-09-23T02:42:30.019Z,15.37
2017-09-23T02:44:58.361Z,15.67
2017-09-23T02:47:25.935Z,15.07
2017-09-23T02:49:53.488Z,15.00
2017-09-23T02:52:21.053Z,13.10
2017-09-23T02:54:48.625Z,13.37
2017-09-23T02:57:16.219Z,12.40
2017-09-23T02:59:43.764Z,13.93
2017-09-23T03:02:12.080Z,11.80
2017-09-23T03:04:39.659Z,12.97
2017-09-23T03:07:07.216Z,13.40
2017-09-23T03:09:34.801Z,12.40
2017-09-23T03:12:02.361Z,13.77
2017-09-23T03:14:30.692Z,13.30
2017-09-23T03:16:58.269Z,13.10
2017-09-23T03:19:25.849Z,13.97
2017-09-23T03:21:53.426Z,12.73
2017-09-23T03:24:21.741Z,13.90
2017-09-23T03:26:49.329Z,13.60
2017-09-23T03:29:16.871Z,15.03
2017-09-23T03:31:44.400Z,14.53
2017-09-23T03:34:11.965Z,13.70
2017-09-23T03:36:39.517Z,16.37
2017-09-23T03:39:07.091Z,14.67
2017-09-23T03:41:34.668Z,15.30
2017-09-23T03:44:02.216Z,14.47
2017-09-23T03:46:29.784Z,14.57
2017-09-23T03:48:57.349Z,14.63
2017-09-23T03:51:24.915Z,15.50
2017-09-23T03:53:52.504Z,15.40
2017-09-23T03:56:20.823Z,14.60
2017-09-23T03:58:48.387Z,14.90
2017-09-23T04:01:15.968Z,15.07
2017-09-23T04:03:44.293Z,16.30
2017-09-23T04:06:11.868Z,14.00
2017-09-23T04:08:39.416Z,14.50
2017-09-23T04:11:06.991Z,14.07
2017-09-23T04:13:34.543Z,15.63
2017-09-23T04:16:02.111Z,15.60
2017-09-23T04:18:29.768Z,14.77
2017-09-23T04:20:57.317Z,15.57
2017-09-23T04:23:24.916Z,14.63
2017-09-23T04:25:52.465Z,14.60
2017-09-23T04:28:20.017Z,15.13
2017-09-23T04:30:47.573Z,15.57
2017-09-23T04:33:15.082Z,14.17
2017-09-23T04:35:43.377Z,16.60
2017-09-23T04:38:10.884Z,15.70
2017-09-23T04:40:38.448Z,12.07
2017-09-23T04:43:05.951Z,14.87
2017-09-23T04:45:33.447Z,14.43
2017-09-23T04:48:00.991Z,15.90
2017-09-23T04:50:28.494Z,15.07
2017-09-23T04:52:56.802Z,15.57
2017-09-23T04:55:24.304Z,14.00
2017-09-23T04:57:51.864Z,14.23
2017-09-23T05:00:19.362Z,16.40
2017-09-23T05:02:47.628Z,16.13
2017-09-23T05:05:15.918Z,17.33
2017-09-23T05:07:43.416Z,13.40
2017-09-23T05:10:10.946Z,16.23
2017-09-23T05:12:38.448Z,12.77
2017-09-23T05:15:06.716Z,14.30
2017-09-23T05:17:34.232Z,13.50
2017-09-23T05:20:01.732Z,13.03
2017-09-23T05:22:29.257Z,14.77
2017-09-23T05:24:56.939Z,14.43
2017-09-23T05:27:24.449Z,14.00
2017-09-23T05:29:52.732Z,14.30
2017-09-23T05:32:20.228Z,13.10
2017-09-23T05:34:47.755Z,13.83
2017-09-23T05:37:15.311Z,14.57
2017-09-23T05:39:42.811Z,14.93
2017-09-23T05:42:10.309Z,14.20
2017-09-23T05:44:38.607Z,12.60
2017-09-23T05:47:06.112Z,13.80
2017-09-23T05:49:33.635Z,13.40
2017-09-23T05:52:01.140Z,15.80
2017-09-23T05:54:29.440Z,13.10
2017-09-23T05:56:56.964Z,14.30
2017-09-23T05:59:24.533Z,12.40
2017-09-23T06:01:52.030Z,14.60
2017-09-23T06:04:19.553Z,15.53
2017-09-23T06:06:47.843Z,14.07
2017-09-23T06:09:15.393Z,14.03
2017-09-23T06:11:43.656Z,15.70
2017-09-23T06:14:11.916Z,14.17
2017-09-23T06:16:39.444Z,15.97
2017-09-23T06:19:06.943Z,14.83
2017-09-23T06:21:34.465Z,14.33
2017-09-23T06:24:01.972Z,15.70
2017-09-23T06:26:30.309Z,14.27
2017-09-23T06:28:57.920Z,15.37
2017-09-23T06:31:25.436Z,14.37
2017-09-23T06:33:52.994Z,15.60
2017-09-23T06:36:20.505Z,12.87
2017-09-23T06:38:48.075Z,13.27
2017-09-23T06:41:15.597Z,15.50
2017-09-23T06:43:43.878Z,16.33
2017-09-23T06:46:12.181Z,15.77
2017-09-23T06:48:39.684Z,14.33
2017-09-23T06:51:08.725Z,15.47
2017-09-23T06:53:36.221Z,14.33
2017-09-23T06:56:03.760Z,17.00
2017-09-23T06:58:31.293Z,16.70
2017-09-23T07:00:58.789Z,16.30
2017-09-23T07:03:26.429Z,12.93
2017-09-23T07:05:53.952Z,14.13
2017-09-23T07:08:22.235Z,14.53
2017-09-23T07:10:49.776Z,14.17
2017-09-23T07:13:18.068Z,14.90
2017-09-23T07:15:45.563Z,16.70
2017-09-23T07:18:13.117Z,14.30
2017-09-23T07:20:40.605Z,16.60
2017-09-23T07:23:08.889Z,13.67
2017-09-23T07:25:36.379Z,16.37
2017-09-23T07:28:03.911Z,16.17
2017-09-23T07:30:32.186Z,17.10
2017-09-23T07:33:00.498Z,15.90
2017-09-23T07:35:28.034Z,16.27
2017-09-23T07:37:56.300Z,15.20
2017-09-23T07:40:24.600Z,14.50
2017-09-23T07:42:52.102Z,14.47
2017-09-23T07:45:19.628Z,14.83
2017-09-23T07:47:47.154Z,13.53
2017-09-23T07:50:15.456Z,14.07
2017-09-23T07:52:43.001Z,15.13
2017-09-23T07:55:10.509Z,15.37
2017-09-23T07:57:38.037Z,16.00
2017-09-23T08:00:05.557Z,14.33
2017-09-23T08:02:33.833Z,15.20
2017-09-23T08:05:02.126Z,15.30
2017-09-23T08:07:29.649Z,16.90
2017-09-23T08:09:57.190Z,14.33
2017-09-23T08:12:24.680Z,15.97
2017-09-23T08:14:52.977Z,13.63
2017-09-23T08:17:20.501Z,14.90
2017-09-23T08:19:48.014Z,15.07
2017-09-23T08:22:15.572Z,12.80
2017-09-23T08:24:43.073Z,15.30
2017-09-23T08:27:10.586Z,14.50
2017-09-23T08:29:38.122Z,16.53
2017-09-23T08:32:05.634Z,15.23
2017-09-23T08:34:33.264Z,16.30
2017-09-23T08:37:00.823Z,15.90
2017-09-23T08:39:28.361Z,14.23
2017-09-23T08:41:55.877Z,13.13
2017-09-23T08:44:23.403Z,15.77
2017-09-23T08:46:50.917Z,18.10
2017-09-23T08:49:19.200Z,17.20
2017-09-23T08:51:46.736Z,17.37
2017-09-23T08:54:15.006Z,17.13
2017-09-23T08:56:43.322Z,18.00
2017-09-23T08:59:10.849Z,15.60
2017-09-23T09:01:39.131Z,18.77
2017-09-23T09:04:07.425Z,16.20
2017-09-23T09:06:34.933Z,18.03
2017-09-23T09:09:02.480Z,15.37
2017-09-23T09:11:29.992Z,15.73
2017-09-23T09:13:57.510Z,16.17
2017-09-23T09:16:25.820Z,16.03
2017-09-23T09:18:53.389Z,16.40
2017-09-23T09:21:20.892Z,16.50
2017-09-23T09:23:48.426Z,16.40
2017-09-23T09:26:15.969Z,18.50
2017-09-23T09:28:43.472Z,15.80
2017-09-23T09:31:11.017Z,18.43
2017-09-23T09:33:38.525Z,17.13
2017-09-23T09:36:06.052Z,17.90
2017-09-23T09:38:33.554Z,16.90
2017-09-23T09:41:01.080Z,17.60
2017-09-23T09:43:29.382Z,17.43
2017-09-23T09:45:56.898Z,17.73
2017-09-23T09:48:24.432Z,17.37
2017-09-23T09:50:51.941Z,19.77
2017-09-23T09:53:20.245Z,20.23
2017-09-23T09:55:47.741Z,17.60
2017-09-23T09:58:15.262Z,18.23
2017-09-23T10:00:42.795Z,19.00
2017-09-23T10:03:10.307Z,20.13
2017-09-23T10:05:37.849Z,21.03
2017-09-23T10:08:05.351Z,18.97
2017-09-23T10:10:33.616Z,18.37
2017-09-23T10:13:01.902Z,17.97
2017-09-23T10:15:30.184Z,17.10
2017-09-23T10:17:58.484Z,17.53
2017-09-23T10:20:26.009Z,18.70
2017-09-23T10:22:54.289Z,18.20
2017-09-23T10:25:22.576Z,14.30
2017-09-23T10:27:50.085Z,15.40
2017-09-23T10:30:17.614Z,14.50
2017-09-23T10:32:45.131Z,12.90
2017-09-23T10:35:13.410Z,13.00
2017-09-23T10:37:41.705Z,11.07
2017-09-23T10:40:09.216Z,12.87
2017-09-23T10:42:36.752Z,13.10
2017-09-23T10:45:04.244Z,14.50
2017-09-23T10:47:33.273Z,14.47
2017-09-23T10:50:00.793Z,11.60
2017-09-23T10:52:28.325Z,11.23
2017-09-23T10:54:55.838Z,12.43
2017-09-23T10:57:23.363Z,10.23
2017-09-23T10:59:50.907Z,11.37
2017-09-23T11:02:18.412Z,12.10
2017-09-23T11:04:45.905Z,13.33
2017-09-23T11:07:13.429Z,10.60
2017-09-23T11:09:40.965Z,11.80
2017-09-23T11:12:09.288Z,11.10
2017-09-23T11:14:36.798Z,16.40
2017-09-23T11:17:05.082Z,13.43
2017-09-23T11:19:33.382Z,13.40
2017-09-23T11:22:00.880Z,10.80
2017-09-23T11:24:28.409Z,11.53
2017-09-23T11:26:55.921Z,10.30
2017-09-23T11:29:24.183Z,9.90
2017-09-23T11:31:51.731Z,10.83
2017-09-23T11:34:19.228Z,9.70
2017-09-23T11:36:47.523Z,8.40
2017-09-23T11:39:15.020Z,7.57
2017-09-23T11:41:42.552Z,8.53
2017-09-23T11:44:10.050Z,9.07
2017-09-23T11:46:37.544Z,7.40
2017-09-23T11:49:05.073Z,8.80
2017-09-23T11:51:33.503Z,10.30
2017-09-23T11:54:01.048Z,10.70
2017-09-23T11:56:28.557Z,9.30
2017-09-23T11:58:56.076Z,10.33
2017-09-23T12:01:23.606Z,11.17
2017-09-23T12:03:51.116Z,11.47
2017-09-23T12:06:18.658Z,9.80
2017-09-23T12:08:46.155Z,14.83
2017-09-23T12:11:14.444Z,10.17
2017-09-23T12:13:42.758Z,11.73
2017-09-23T12:16:10.267Z,11.73
2017-09-23T12:18:38.530Z,11.87
2017-09-23T12:21:06.078Z,10.93
2017-09-23T12:23:33.576Z,9.90
2017-09-23T12:26:01.109Z,10.60
2017-09-23T12:28:28.647Z,11.43
2017-09-23T12:30:56.170Z,10.20
2017-09-23T12:33:23.680Z,11.10
2017-09-23T12:35:51.221Z,10.43
2017-09-23T12:38:18.724Z,10.83
2017-09-23T12:40:46.249Z,10.60
2017-09-23T12:43:14.582Z,8.47
2017-09-23T12:45:42.089Z,9.30
2017-09-23T12:48:09.605Z,9.10
2017-09-23T12:50:37.101Z,8.97
2017-09-23T12:53:04.635Z,9.10
2017-09-23T12:55:32.144Z,8.93
2017-09-23T12:57:59.642Z,8.37
2017-09-23T13:00:27.171Z,8.07
2017-09-23T13:02:54.676Z,7.20
2017-09-23T13:05:22.211Z,7.60
2017-09-23T13:07:49.701Z,7.47
2017-09-23T13:10:17.219Z,8.13
2017-09-23T13:12:44.748Z,7.47
2017-09-23T13:15:12.248Z,7.33
2017-09-23T13:17:39.740Z,6.80
2017-09-23T13:20:08.038Z,7.03
2017-09-23T13:22:35.548Z,5.77
2017-09-23T13:25:03.063Z,7.63
2017-09-23T13:27:30.572Z,6.93
2017-09-23T13:29:58.084Z,7.43
2017-09-23T13:32:25.577Z,6.17
2017-09-23T13:34:53.104Z,7.20
2017-09-23T13:37:20.629Z,6.63
2017-09-23T13:39:48.936Z,7.03
2017-09-23T13:42:16.424Z,6.60
2017-09-23T13:44:44.428Z,7.80
2017-09-23T13:47:11.949Z,6.47
2017-09-23T13:49:39.432Z,5.37
2017-09-23T13:52:07.709Z,6.43
2017-09-23T13:54:35.991Z,5.77
2017-09-23T13:57:04.294Z,5.97
2017-09-23T13:59:31.809Z,6.10
2017-09-23T14:01:59.328Z,6.27
2017-09-23T14:04:26.837Z,7.20
2017-09-23T14:06:54.391Z,5.33
2017-09-23T14:09:22.702Z,6.47
2017-09-23T14:11:50.198Z,5.53
2017-09-23T14:14:17.724Z,4.73
2017-09-23T14:16:45.237Z,5.03
2017-09-23T14:19:13.533Z,5.17
2017-09-23T14:21:41.036Z,4.37
2017-09-23T14:24:08.644Z,5.17
2017-09-23T14:26:36.935Z,5.87
2017-09-23T14:29:04.436Z,5.70
2017-09-23T14:31:31.958Z,4.90
2017-09-23T14:33:59.473Z,4.00
2017-09-23T14:36:26.964Z,4.60
2017-09-23T14:38:54.483Z,4.43
2017-09-23T14:41:21.985Z,5.93
2017-09-23T14:43:49.522Z,6.37
2017-09-23T14:46:17.786Z,6.37
2017-09-23T14:48:46.045Z,7.57
2017-09-23T14:51:13.580Z,7.87
2017-09-23T14:53:41.073Z,7.60
2017-09-23T14:56:09.382Z,6.73
2017-09-23T14:58:36.912Z,6.30
2017-09-23T15:01:05.168Z,5.43
2017-09-23T15:03:32.738Z,5.47
2017-09-23T15:06:01.002Z,5.40
2017-09-23T15:08:28.578Z,5.70
2017-09-23T15:10:56.849Z,6.67
2017-09-23T15:13:25.136Z,7.90
2017-09-23T15:15:53.414Z,6.17
2017-09-23T15:18:21.701Z,5.40
2017-09-23T15:20:49.222Z,5.00
2017-09-23T15:23:16.776Z,6.00
2017-09-23T15:25:44.272Z,5.60
2017-09-23T15:28:11.817Z,5.87
2017-09-23T15:30:39.353Z,5.87
2017-09-23T15:33:06.840Z,6.00
2017-09-23T15:35:34.387Z,5.90
2017-09-23T15:38:02.659Z,5.33
2017-09-23T15:40:30.928Z,6.10
2017-09-23T15:42:59.220Z,5.63
2017-09-23T15:45:26.745Z,5.40
2017-09-23T15:47:54.265Z,5.60
2017-09-23T15:50:21.777Z,5.77
2017-09-23T15:52:50.067Z,5.30
2017-09-23T15:55:18.320Z,5.20
2017-09-23T15:57:45.844Z,5.47
2017-09-23T16:00:13.368Z,4.90
2017-09-23T16:02:40.884Z,6.27
2017-09-23T16:05:08.429Z,6.33
2017-09-23T16:07:35.928Z,5.70
2017-09-23T16:10:04.194Z,5.50
2017-09-23T16:12:32.484Z,5.90
2017-09-23T16:14:59.982Z,5.97
2017-09-23T16:17:27.505Z,5.37
2017-09-23T16:19:54.996Z,5.43
2017-09-23T16:22:22.555Z,4.87
2017-09-23T16:24:50.050Z,6.17
2017-09-23T16:27:18.337Z,6.73
2017-09-23T16:29:46.627Z,6.40
2017-09-23T16:32:14.125Z,7.00
2017-09-23T16:34:41.666Z,6.30
2017-09-23T16:37:09.156Z,6.27
2017-09-23T16:39:36.662Z,5.77
2017-09-23T16:42:04.199Z,5.90
2017-09-23T16:44:32.472Z,6.27
2017-09-23T16:47:00.767Z,6.50
2017-09-23T16:49:28.295Z,7.20
2017-09-23T16:51:55.837Z,5.80
2017-09-23T16:54:23.339Z,6.33
2017-09-23T16:56:50.873Z,6.63
2017-09-23T16:59:19.392Z,5.97
2017-09-23T17:01:46.887Z,5.97
2017-09-23T17:04:14.414Z,15.87
2017-09-23T17:06:41.920Z,9.93
2017-09-23T17:09:10.218Z,6.57
2017-09-23T17:11:37.730Z,7.10
2017-09-23T17:14:05.229Z,8.40
2017-09-23T17:16:33.513Z,7.90
2017-09-23T17:19:01.048Z,28.33
2017-09-23T17:21:29.338Z,32.77
2017-09-23T17:23:56.910Z,23.23
2017-09-23T17:26:24.459Z,12.00
2017-09-23T17:28:52.012Z,10.93
2017-09-23T17:31:20.296Z,11.00
2017-09-23T17:33:47.840Z,9.30
2017-09-23T17:36:16.101Z,10.57
2017-09-23T17:38:43.621Z,8.57
2017-09-23T17:41:11.124Z,7.67
2017-09-23T17:43:39.407Z,8.43
2017-09-23T17:46:07.706Z,7.67
2017-09-23T17:48:35.196Z,8.23
2017-09-23T17:51:02.711Z,9.07
2017-09-23T17:53:30.232Z,8.20
2017-09-23T17:55:59.261Z,8.50
2017-09-23T17:58:26.788Z,9.00
2017-09-23T18:00:54.288Z,9.10
2017-09-23T18:03:21.818Z,8.73
2017-09-23T18:05:50.086Z,9.00
2017-09-23T18:08:18.407Z,10.17
2017-09-23T18:10:45.927Z,10.17
2017-09-23T18:13:14.208Z,9.77
2017-09-23T18:15:41.757Z,10.63
2017-09-23T18:18:10.030Z,11.70
2017-09-23T18:20:38.336Z,12.97
2017-09-23T18:23:05.875Z,11.40
2017-09-23T18:25:34.191Z,11.77
2017-09-23T18:28:01.705Z,10.07
2017-09-23T18:30:30.453Z,10.00
2017-09-23T18:32:58.736Z,10.50
2017-09-23T18:35:27.808Z,10.10
2017-09-23T18:37:55.320Z,11.07
2017-09-23T18:40:22.857Z,12.40
2017-09-23T18:42:50.378Z,12.23
2017-09-23T18:45:17.882Z,12.13
2017-09-23T18:47:46.202Z,11.37
2017-09-23T18:50:13.710Z,12.73
2017-09-23T18:52:42.028Z,11.40
2017-09-23T18:55:09.561Z,12.83
2017-09-23T18:57:37.863Z,11.93
2017-09-23T19:00:05.417Z,11.20
2017-09-23T19:02:32.937Z,13.20
2017-09-23T19:05:01.265Z,11.73
2017-09-23T19:07:28.789Z,11.57
2017-09-23T19:09:57.064Z,12.27
2017-09-23T19:12:25.365Z,12.43
2017-09-23T19:14:52.898Z,12.50
2017-09-23T19:17:20.451Z,12.83
2017-09-23T19:19:48.796Z,12.20
2017-09-23T19:22:16.351Z,10.90
2017-09-23T19:24:43.883Z,12.70
2017-09-23T19:27:11.384Z,12.87
2017-09-23T19:29:40.421Z,13.53
2017-09-23T19:32:07.938Z,13.17
2017-09-23T19:34:35.483Z,14.43
2017-09-23T19:37:04.486Z,14.87
2017-09-23T19:39:32.765Z,16.70
2017-09-23T19:42:01.109Z,15.00
2017-09-23T19:44:28.648Z,13.77
2017-09-23T19:46:56.173Z,13.37
2017-09-23T19:49:24.457Z,13.80
2017-09-23T19:51:52.015Z,14.70
2017-09-23T19:54:19.669Z,18.50
2017-09-23T19:56:47.972Z,20.13
2017-09-23T19:59:15.491Z,20.40
2017-09-23T20:01:43.767Z,18.23
2017-09-23T20:04:12.097Z,16.07
2017-09-23T20:06:39.625Z,15.30
2017-09-23T20:09:07.166Z,16.03
2017-09-23T20:11:35.444Z,16.70
2017-09-23T20:14:03.772Z,17.00
2017-09-23T20:16:31.306Z,14.67
2017-09-23T20:18:58.811Z,15.47
2017-09-23T20:21:26.364Z,16.47
2017-09-23T20:23:54.677Z,16.77
2017-09-23T20:26:23.050Z,15.83
2017-09-23T20:28:51.360Z,15.37
2017-09-23T20:31:18.882Z,16.67
2017-09-23T20:33:47.148Z,15.77
2017-09-23T20:36:15.551Z,17.37
2017-09-23T20:38:43.064Z,14.77
2017-09-23T20:41:10.582Z,15.00
2017-09-23T20:43:38.145Z,16.50
2017-09-23T20:46:05.650Z,16.63
2017-09-23T20:48:33.948Z,16.10
2017-09-23T20:51:01.458Z,18.47
2017-09-23T20:53:29.018Z,16.83
2017-09-23T20:55:56.533Z,17.17
2017-09-23T20:58:24.045Z,15.87
2017-09-23T21:00:52.374Z,16.03
2017-09-23T21:03:20.077Z,15.93
2017-09-23T21:05:49.113Z,17.53
2017-09-23T21:08:16.622Z,16.77
2017-09-23T21:10:44.151Z,18.53
2017-09-23T21:13:11.669Z,16.40
2017-09-23T21:15:39.999Z,16.93
2017-09-23T21:18:07.529Z,18.40
2017-09-23T21:20:35.058Z,18.10
2017-09-23T21:23:03.380Z,18.90
2017-09-23T21:25:30.905Z,20.40
2017-09-23T21:27:58.434Z,16.90
2017-09-23T21:30:26.770Z,18.13
2017-09-23T21:32:54.310Z,18.43
2017-09-23T21:35:22.067Z,18.00
2017-09-23T21:37:49.624Z,17.30
2017-09-23T21:40:17.166Z,16.33
2017-09-23T21:42:45.478Z,17.60
2017-09-23T21:45:13.019Z,18.67
2017-09-23T21:47:40.534Z,18.13
2017-09-23T21:50:08.063Z,17.50
2017-09-23T21:52:35.583Z,19.47
2017-09-23T21:55:03.896Z,18.77
2017-09-23T21:57:31.402Z,18.90
2017-09-23T21:59:59.670Z,17.23
2017-09-23T22:02:27.211Z,18.53
2017-09-23T22:04:54.709Z,18.70
2017-09-23T22:07:22.257Z,18.53
2017-09-23T22:09:50.534Z,21.57
2017-09-23T22:12:18.839Z,19.73
2017-09-23T22:14:46.356Z,19.50
2017-09-23T22:17:14.676Z,18.67
2017-09-23T22:19:42.188Z,19.30
2017-09-23T22:22:10.468Z,18.00
2017-09-23T22:24:38.760Z,18.33
2017-09-23T22:27:06.261Z,19.20
2017-09-23T22:29:33.786Z,17.27
2017-09-23T22:32:01.308Z,18.13
2017-09-23T22:34:28.832Z,17.80
2017-09-23T22:36:56.354Z,18.73
2017-09-23T22:39:23.846Z,18.10
2017-09-23T22:41:51.371Z,18.60
2017-09-23T22:44:18.884Z,16.90
2017-09-23T22:46:47.184Z,18.40
2017-09-23T22:49:15.456Z,18.20
2017-09-23T22:51:43.749Z,18.80
2017-09-23T22:54:11.272Z,18.77
2017-09-23T22:56:38.817Z,18.30
2017-09-23T22:59:06.337Z,18.03
2017-09-23T23:01:33.836Z,18.37
2017-09-23T23:04:01.381Z,18.40
2017-09-23T23:06:28.887Z,18.50
2017-09-23T23:08:57.173Z,17.93
2017-09-23T23:11:24.692Z,19.00
2017-09-23T23:13:52.993Z,18.90
2017-09-23T23:16:21.272Z,18.40
2017-09-23T23:18:49.593Z,18.60
2017-09-23T23:21:17.138Z,18.80
2017-09-23T23:23:44.681Z,18.70
2017-09-23T23:26:12.205Z,19.43
2017-09-23T23:28:39.723Z,18.80
2017-09-23T23:31:07.238Z,19.20
2017-09-23T23:33:34.800Z,19.17
2017-09-23T23:36:02.333Z,18.47
2017-09-23T23:38:30.631Z,19.20
2017-09-23T23:40:58.913Z,18.70
2017-09-23T23:43:26.432Z,18.63
2017-09-23T23:45:53.960Z,18.80
2017-09-23T23:48:21.487Z,19.23
2017-09-23T23:50:49.013Z,16.97
2017-09-23T23:53:16.509Z,18.77
2017-09-23T23:55:44.039Z,19.13
2017-09-23T23:58:12.308Z,17.93
